createdAt,value
2018-07-11T00:00:44.126Z,15.83
2018-07-11T00:03:12.684Z,15.40
2018-07-11T00:05:41.197Z,15.03
2018-07-11T00:08:09.595Z,14.37
2018-07-11T00:10:38.643Z,14.87
2018-07-11T00:13:07.269Z,14.20
2018-07-11T00:15:35.862Z,14.23
2018-07-11T00:18:04.228Z,14.07
2018-07-11T00:20:32.661Z,13.87
2018-07-11T00:23:01.026Z,13.20
2018-07-11T00:25:30.174Z,13.17
2018-07-11T00:27:58.728Z,12.90
2018-07-11T00:30:27.144Z,13.00
2018-07-11T00:32:55.940Z,13.10
2018-07-11T00:35:24.344Z,12.67
2018-07-11T00:37:52.884Z,11.93
2018-07-11T00:40:21.743Z,11.73
2018-07-11T00:42:50.304Z,12.53
2018-07-11T00:45:18.874Z,12.20
2018-07-11T00:47:47.444Z,11.80
2018-07-11T00:50:15.840Z,11.07
2018-07-11T00:52:43.915Z,11.23
2018-07-11T00:55:12.338Z,10.73
2018-07-11T00:57:40.753Z,10.60
2018-07-11T01:00:09.359Z,11.00
2018-07-11T01:02:37.758Z,10.90
2018-07-11T01:05:06.324Z,10.47
2018-07-11T01:07:34.690Z,10.47
2018-07-11T01:10:03.648Z,9.97
2018-07-11T01:12:32.510Z,9.23
2018-07-11T01:15:00.883Z,10.33
2018-07-11T01:17:34.870Z,9.67
2018-07-11T01:20:03.286Z,9.53
2018-07-11T01:22:31.761Z,9.03
2018-07-11T01:25:00.141Z,9.13
2018-07-11T01:27:28.488Z,8.63
2018-07-11T01:29:56.990Z,8.83
2018-07-11T01:32:25.397Z,8.40
2018-07-11T01:34:53.754Z,8.70
2018-07-11T01:37:22.122Z,7.47
2018-07-11T01:39:50.484Z,8.17
2018-07-11T01:42:18.860Z,7.67
2018-07-11T01:44:48.398Z,7.47
2018-07-11T01:47:16.763Z,7.07
2018-07-11T01:49:45.156Z,7.63
2018-07-11T01:52:24.980Z,6.80
2018-07-11T01:54:53.379Z,6.90
2018-07-11T01:57:21.739Z,6.90
2018-07-11T01:59:50.121Z,6.33
2018-07-11T02:02:18.485Z,6.53
2018-07-11T02:04:47.108Z,5.70
2018-07-11T02:07:15.660Z,6.27
2018-07-11T02:09:43.729Z,6.03
2018-07-11T02:12:12.311Z,6.73
2018-07-11T02:14:40.812Z,5.40
2018-07-11T02:17:09.186Z,5.77
2018-07-11T02:19:38.145Z,5.40
2018-07-11T02:22:06.538Z,5.30
2018-07-11T02:24:35.065Z,5.23
2018-07-11T02:27:03.441Z,5.17
2018-07-11T02:29:31.854Z,4.77
2018-07-11T02:32:00.606Z,4.97
2018-07-11T02:34:33.512Z,5.00
2018-07-11T02:37:02.320Z,4.90
2018-07-11T02:39:31.031Z,4.87
2018-07-11T02:42:00.170Z,4.83
2018-07-11T02:44:28.546Z,5.07
2018-07-11T02:47:02.273Z,4.67
2018-07-11T02:49:32.452Z,5.00
2018-07-11T02:52:01.576Z,5.80
2018-07-11T02:54:30.305Z,4.73
2018-07-11T02:56:58.856Z,5.10
2018-07-11T02:59:27.260Z,5.27
2018-07-11T03:01:55.672Z,5.37
2018-07-11T03:04:24.305Z,4.93
2018-07-11T03:06:52.786Z,5.17
2018-07-11T03:09:21.268Z,5.00
2018-07-11T03:11:49.695Z,5.50
2018-07-11T03:14:18.213Z,5.50
2018-07-11T03:16:46.741Z,5.23
2018-07-11T03:19:15.621Z,5.50
2018-07-11T03:21:44.424Z,5.80
2018-07-11T03:24:12.788Z,5.23
2018-07-11T03:26:41.271Z,5.67
2018-07-11T03:29:09.631Z,5.00
2018-07-11T03:31:38.186Z,5.50
2018-07-11T03:34:07.121Z,4.73
2018-07-11T03:36:35.705Z,5.80
2018-07-11T03:39:04.899Z,5.27
2018-07-11T03:41:33.563Z,5.37
2018-07-11T03:44:01.988Z,5.93
2018-07-11T03:46:30.620Z,5.23
2018-07-11T03:48:59.710Z,5.23
2018-07-11T03:51:28.428Z,5.33
2018-07-11T03:53:57.036Z,4.90
2018-07-11T03:56:25.942Z,4.87
2018-07-11T03:58:54.612Z,5.17
2018-07-11T04:01:22.972Z,4.63
2018-07-11T04:03:51.652Z,4.97
2018-07-11T04:06:20.003Z,4.37
2018-07-11T04:08:48.365Z,4.80
2018-07-11T04:11:16.812Z,4.10
2018-07-11T04:13:45.217Z,5.53
2018-07-11T04:16:13.610Z,4.23
2018-07-11T04:18:42.057Z,4.43
2018-07-11T04:21:10.432Z,4.50
2018-07-11T04:23:38.961Z,4.33
2018-07-11T04:26:07.472Z,4.70
2018-07-11T04:28:35.880Z,4.37
2018-07-11T04:31:04.236Z,4.63
2018-07-11T04:33:33.328Z,4.37
2018-07-11T04:36:02.017Z,4.27
2018-07-11T04:38:30.416Z,3.90
2018-07-11T04:40:58.767Z,4.07
2018-07-11T04:43:27.285Z,3.77
2018-07-11T04:45:56.300Z,3.80
2018-07-11T04:48:24.688Z,4.20
2018-07-11T04:50:53.046Z,4.13
2018-07-11T04:53:23.999Z,4.40
2018-07-11T04:56:04.967Z,4.43
2018-07-11T04:58:33.813Z,4.40
2018-07-11T05:01:02.374Z,4.53
2018-07-11T05:03:30.879Z,3.73
2018-07-11T05:05:59.855Z,5.17
2018-07-11T05:08:28.297Z,4.10
2018-07-11T05:10:57.005Z,4.63
2018-07-11T05:13:25.260Z,4.80
2018-07-11T05:15:54.408Z,4.70
2018-07-11T05:18:22.866Z,4.57
2018-07-11T05:20:51.340Z,5.57
2018-07-11T05:23:19.746Z,5.33
2018-07-11T05:25:48.268Z,5.90
2018-07-11T05:28:16.632Z,6.30
2018-07-11T05:30:44.767Z,6.70
2018-07-11T05:33:13.900Z,7.23
2018-07-11T05:35:42.372Z,7.77
2018-07-11T05:38:10.793Z,7.40
2018-07-11T05:40:39.429Z,9.23
2018-07-11T05:43:08.036Z,8.10
2018-07-11T05:45:36.417Z,9.03
2018-07-11T05:48:05.022Z,9.20
2018-07-11T05:50:33.413Z,9.47
2018-07-11T05:53:01.840Z,9.93
2018-07-11T05:55:30.259Z,10.10
2018-07-11T05:57:58.631Z,10.07
2018-07-11T06:00:27.258Z,9.87
2018-07-11T06:02:55.667Z,10.40
2018-07-11T06:05:24.114Z,10.23
2018-07-11T06:07:52.637Z,9.67
2018-07-11T06:10:21.185Z,8.73
2018-07-11T06:12:49.808Z,8.83
2018-07-11T06:15:18.402Z,8.90
2018-07-11T06:17:47.165Z,11.93
2018-07-11T06:20:16.481Z,12.07
2018-07-11T06:22:45.292Z,13.20
2018-07-11T06:25:13.747Z,33.50
2018-07-11T06:27:42.407Z,15.30
2018-07-11T06:30:11.092Z,10.73
2018-07-11T06:32:39.630Z,9.27
2018-07-11T06:35:07.868Z,8.63
2018-07-11T06:37:36.370Z,8.63
2018-07-11T06:40:05.022Z,8.57
2018-07-11T06:42:33.564Z,7.80
2018-07-11T06:45:02.033Z,6.77
2018-07-11T06:47:30.847Z,7.53
2018-07-11T06:49:59.342Z,6.53
2018-07-11T06:52:27.921Z,7.17
2018-07-11T06:54:56.560Z,6.63
2018-07-11T06:57:24.978Z,6.57
2018-07-11T06:59:53.592Z,5.97
2018-07-11T07:02:22.243Z,6.40
2018-07-11T07:04:50.745Z,5.73
2018-07-11T07:07:19.749Z,5.30
2018-07-11T07:09:48.253Z,5.53
2018-07-11T07:12:16.997Z,5.03
2018-07-11T07:14:45.563Z,4.57
2018-07-11T07:17:14.227Z,4.43
2018-07-11T07:19:44.129Z,5.10
2018-07-11T07:22:12.763Z,4.67
2018-07-11T07:24:41.768Z,4.70
2018-07-11T07:27:10.349Z,4.00
2018-07-11T07:29:39.007Z,4.07
2018-07-11T07:32:08.179Z,3.73
2018-07-11T07:34:36.910Z,4.20
2018-07-11T07:37:05.361Z,3.67
2018-07-11T07:39:33.959Z,3.87
2018-07-11T07:42:02.938Z,3.60
2018-07-11T07:44:31.521Z,3.63
2018-07-11T07:47:00.858Z,3.50
2018-07-11T07:49:31.161Z,3.70
2018-07-11T07:52:00.870Z,3.40
2018-07-11T07:54:30.037Z,3.10
2018-07-11T07:56:58.568Z,3.50
2018-07-11T07:59:27.425Z,3.20
2018-07-11T08:01:56.818Z,3.13
2018-07-11T08:04:25.303Z,3.23
2018-07-11T08:06:53.775Z,3.07
2018-07-11T08:09:24.370Z,3.00
2018-07-11T08:11:52.840Z,2.80
2018-07-11T08:14:27.304Z,3.00
2018-07-11T08:16:55.916Z,3.40
2018-07-11T08:19:24.487Z,2.80
2018-07-11T08:21:52.678Z,2.40
2018-07-11T08:24:32.388Z,2.80
2018-07-11T08:27:12.948Z,2.77
2018-07-11T08:29:50.630Z,2.57
2018-07-11T08:32:36.047Z,2.70
2018-07-11T08:36:14.589Z,2.50
2018-07-11T08:38:54.467Z,2.20
2018-07-11T08:41:39.008Z,2.23
2018-07-11T08:44:16.897Z,1.83
2018-07-11T08:47:00.229Z,2.00
2018-07-11T08:49:40.005Z,2.20
2018-07-11T08:52:20.256Z,1.80
2018-07-11T08:55:02.672Z,3.00
2018-07-11T08:57:40.009Z,2.77
2018-07-11T09:00:29.425Z,2.87
2018-07-11T09:03:12.169Z,2.53
2018-07-11T09:06:58.683Z,2.23
2018-07-11T09:09:45.995Z,2.10
2018-07-11T09:12:23.181Z,2.27
2018-07-11T09:15:22.058Z,2.10
2018-07-11T09:19:04.244Z,1.50
2018-07-11T09:22:48.321Z,1.70
2018-07-11T09:25:17.077Z,1.70
2018-07-11T09:27:49.020Z,1.77
2018-07-11T09:30:17.978Z,1.50
2018-07-11T09:32:46.550Z,1.30
2018-07-11T09:35:15.060Z,1.40
2018-07-11T09:37:43.688Z,1.93
2018-07-11T09:40:12.601Z,1.40
2018-07-11T09:42:41.673Z,1.50
2018-07-11T09:45:11.042Z,1.67
2018-07-11T09:47:39.670Z,1.80
2018-07-11T09:50:08.481Z,1.60
2018-07-11T09:52:37.547Z,1.53
2018-07-11T09:55:11.482Z,1.90
2018-07-11T09:57:40.671Z,1.87
2018-07-11T10:00:13.087Z,1.87
2018-07-11T10:02:42.155Z,1.73
2018-07-11T10:05:10.557Z,1.90
2018-07-11T10:07:38.946Z,1.57
2018-07-11T10:10:07.999Z,1.90
2018-07-11T10:12:36.404Z,2.07
2018-07-11T10:15:05.127Z,1.67
2018-07-11T10:17:34.061Z,1.50
2018-07-11T10:20:02.721Z,1.80
2018-07-11T10:22:31.769Z,1.87
2018-07-11T10:25:00.274Z,1.70
2018-07-11T10:27:29.552Z,1.70
2018-07-11T10:29:57.964Z,1.87
2018-07-11T10:32:26.504Z,2.07
2018-07-11T10:34:55.037Z,2.80
2018-07-11T10:37:23.652Z,2.03
2018-07-11T10:39:52.057Z,2.13
2018-07-11T10:42:20.840Z,1.50
2018-07-11T10:44:49.357Z,1.90
2018-07-11T10:47:18.185Z,2.30
2018-07-11T10:49:46.599Z,1.60
2018-07-11T10:52:15.775Z,1.90
2018-07-11T10:54:44.157Z,1.97
2018-07-11T10:57:12.707Z,2.00
2018-07-11T10:59:41.737Z,1.87
2018-07-11T11:02:10.926Z,1.90
2018-07-11T11:04:39.336Z,1.50
2018-07-11T11:07:07.762Z,2.00
2018-07-11T11:09:36.804Z,1.60
2018-07-11T11:12:05.537Z,1.67
2018-07-11T11:14:34.151Z,1.80
2018-07-11T11:17:02.799Z,1.80
2018-07-11T11:19:31.348Z,1.97
2018-07-11T11:22:00.086Z,1.50
2018-07-11T11:24:28.809Z,1.60
2018-07-11T11:26:57.333Z,1.70
2018-07-11T11:29:25.943Z,1.50
2018-07-11T11:31:54.385Z,1.73
2018-07-11T11:34:23.082Z,1.60
2018-07-11T11:36:51.632Z,1.80
2018-07-11T11:39:20.772Z,1.73
2018-07-11T11:41:49.511Z,2.10
2018-07-11T11:44:18.284Z,1.90
2018-07-11T11:46:47.150Z,1.83
2018-07-11T11:49:15.745Z,2.17
2018-07-11T11:51:44.224Z,2.00
2018-07-11T11:54:12.776Z,1.77
2018-07-11T11:56:41.169Z,1.90
2018-07-11T11:59:09.663Z,2.07
2018-07-11T12:01:38.686Z,1.70
2018-07-11T12:04:07.903Z,1.77
2018-07-11T12:06:36.519Z,1.70
2018-07-11T12:09:05.086Z,2.00
2018-07-11T12:11:33.594Z,1.90
2018-07-11T12:14:01.996Z,2.00
2018-07-11T12:16:30.613Z,1.90
2018-07-11T12:18:59.549Z,1.70
2018-07-11T12:21:28.186Z,1.90
2018-07-11T12:23:56.872Z,1.90
2018-07-11T12:26:26.224Z,1.97
2018-07-11T12:28:54.725Z,1.80
2018-07-11T12:31:23.123Z,1.87
2018-07-11T12:33:51.782Z,1.70
2018-07-11T12:36:20.224Z,2.13
2018-07-11T12:38:53.300Z,2.00
2018-07-11T12:41:22.353Z,2.17
2018-07-11T12:43:51.201Z,2.07
2018-07-11T12:46:19.834Z,1.90
2018-07-11T12:48:54.354Z,1.80
2018-07-11T12:51:22.920Z,2.40
2018-07-11T12:53:51.469Z,1.90
2018-07-11T12:56:20.053Z,2.23
2018-07-11T12:58:48.438Z,2.07
2018-07-11T13:01:16.876Z,2.27
2018-07-11T13:03:45.872Z,2.37
2018-07-11T13:06:14.560Z,2.13
2018-07-11T13:08:43.242Z,2.00
2018-07-11T13:11:12.078Z,2.13
2018-07-11T13:13:40.471Z,2.27
2018-07-11T13:16:08.946Z,1.90
2018-07-11T13:18:37.831Z,2.47
2018-07-11T13:21:06.275Z,2.53
2018-07-11T13:23:34.620Z,1.93
2018-07-11T13:26:03.030Z,2.03
2018-07-11T13:28:31.799Z,1.93
2018-07-11T13:31:00.204Z,2.00
2018-07-11T13:33:29.146Z,1.83
2018-07-11T13:35:57.717Z,2.07
2018-07-11T13:38:26.141Z,2.13
2018-07-11T13:40:54.780Z,2.10
2018-07-11T13:43:24.181Z,2.30
2018-07-11T13:45:52.686Z,2.17
2018-07-11T13:48:21.174Z,1.80
2018-07-11T13:50:49.865Z,1.70
2018-07-11T13:53:19.070Z,2.27
2018-07-11T13:55:47.823Z,1.80
2018-07-11T13:58:16.399Z,2.00
2018-07-11T14:00:44.813Z,1.73
2018-07-11T14:03:13.684Z,1.73
2018-07-11T14:05:42.169Z,1.70
2018-07-11T14:08:11.731Z,1.70
2018-07-11T14:10:40.173Z,1.80
2018-07-11T14:13:08.822Z,1.73
2018-07-11T14:15:37.283Z,1.83
2018-07-11T14:18:06.401Z,1.63
2018-07-11T14:20:34.912Z,1.93
2018-07-11T14:23:07.835Z,2.27
2018-07-11T14:25:39.958Z,1.90
2018-07-11T14:28:08.869Z,1.70
2018-07-11T14:30:39.041Z,2.13
2018-07-11T14:33:09.496Z,1.83
2018-07-11T14:35:38.929Z,2.00
2018-07-11T14:38:07.972Z,2.77
2018-07-11T14:40:37.040Z,2.07
2018-07-11T14:43:06.475Z,2.10
2018-07-11T14:45:35.669Z,1.60
2018-07-11T14:48:09.364Z,1.90
2018-07-11T14:50:38.087Z,1.80
2018-07-11T14:53:06.881Z,2.13
2018-07-11T14:55:35.621Z,2.27
2018-07-11T14:58:04.353Z,2.17
2018-07-11T15:00:35.009Z,1.93
2018-07-11T15:03:03.756Z,2.00
2018-07-11T15:05:32.253Z,1.90
2018-07-11T15:08:00.901Z,2.00
2018-07-11T15:10:29.497Z,2.00
2018-07-11T15:12:57.918Z,2.20
2018-07-11T15:15:26.376Z,2.27
2018-07-11T15:17:55.732Z,1.80
2018-07-11T15:20:24.251Z,2.60
2018-07-11T15:22:54.037Z,2.30
2018-07-11T15:25:22.615Z,2.27
2018-07-11T15:27:51.144Z,2.60
2018-07-11T15:30:20.208Z,2.30
2018-07-11T15:32:48.780Z,3.03
2018-07-11T15:35:17.467Z,2.50
2018-07-11T15:37:45.975Z,2.90
2018-07-11T15:40:14.642Z,2.13
2018-07-11T15:42:44.581Z,2.53
2018-07-11T15:45:13.117Z,3.13
2018-07-11T15:47:44.483Z,2.37
2018-07-11T15:50:13.996Z,2.20
2018-07-11T15:52:42.615Z,2.23
2018-07-11T15:55:12.462Z,2.20
2018-07-11T15:57:51.633Z,2.13
2018-07-11T16:00:29.355Z,2.43
2018-07-11T16:02:59.473Z,1.97
2018-07-11T16:05:30.366Z,1.73
2018-07-11T16:08:03.696Z,2.20
2018-07-11T16:10:38.235Z,2.63
2018-07-11T16:13:07.413Z,2.23
2018-07-11T16:15:36.244Z,2.37
2018-07-11T16:18:06.005Z,2.27
2018-07-11T16:20:35.232Z,1.87
2018-07-11T16:23:10.117Z,1.83
2018-07-11T16:25:40.591Z,1.70
2018-07-11T16:28:09.880Z,2.00
2018-07-11T16:30:38.268Z,2.03
2018-07-11T16:33:06.740Z,1.70
2018-07-11T16:35:35.120Z,1.80
2018-07-11T16:38:07.677Z,1.90
2018-07-11T16:40:35.883Z,1.73
2018-07-11T16:43:05.669Z,2.00
2018-07-11T16:45:34.309Z,2.00
2018-07-11T16:48:03.032Z,2.20
2018-07-11T16:50:31.519Z,1.90
2018-07-11T16:53:00.257Z,1.90
2018-07-11T16:55:30.147Z,2.00
2018-07-11T16:57:58.792Z,1.90
2018-07-11T17:00:29.673Z,1.70
2018-07-11T17:03:01.591Z,1.70
2018-07-11T17:05:39.242Z,2.20
2018-07-11T17:08:07.682Z,2.00
2018-07-11T17:10:36.409Z,1.73
2018-07-11T17:13:12.034Z,1.80
2018-07-11T17:15:45.515Z,1.80
2018-07-11T17:18:18.301Z,1.97
2018-07-11T17:20:46.900Z,1.87
2018-07-11T17:23:16.495Z,2.00
2018-07-11T17:25:45.013Z,2.50
2018-07-11T17:28:13.634Z,2.07
2018-07-11T17:30:43.573Z,2.17
2018-07-11T17:33:13.079Z,2.63
2018-07-11T17:35:50.988Z,2.40
2018-07-11T17:38:23.612Z,2.17
2018-07-11T17:40:52.110Z,2.10
2018-07-11T17:43:21.735Z,2.20
2018-07-11T17:45:51.872Z,2.37
2018-07-11T17:48:27.012Z,2.10
2018-07-11T17:51:02.245Z,2.10
2018-07-11T17:53:37.085Z,2.70
2018-07-11T17:56:12.447Z,2.50
2018-07-11T17:58:58.021Z,2.33
2018-07-11T18:01:45.620Z,2.90
2018-07-11T18:05:26.213Z,2.30
2018-07-11T18:07:56.152Z,2.40
2018-07-11T18:10:32.540Z,2.40
2018-07-11T18:13:12.469Z,2.43
2018-07-11T18:15:49.267Z,2.27
2018-07-11T18:18:26.379Z,2.40
2018-07-11T18:21:09.443Z,2.67
2018-07-11T18:23:46.878Z,2.93
2018-07-11T18:26:24.761Z,2.50
2018-07-11T18:29:35.942Z,2.50
2018-07-11T18:33:11.470Z,2.33
2018-07-11T18:37:50.489Z,2.33
2018-07-11T18:40:36.236Z,2.67
2018-07-11T18:43:16.009Z,2.80
2018-07-11T18:45:56.474Z,2.60
2018-07-11T18:48:36.704Z,2.90
2018-07-11T18:53:21.385Z,3.33
2018-07-11T18:56:59.924Z,3.07
2018-07-11T19:00:42.258Z,3.53
2018-07-11T19:03:11.682Z,3.30
2018-07-11T19:06:49.253Z,2.77
2018-07-11T19:09:29.928Z,3.40
2018-07-11T19:12:03.608Z,3.20
2018-07-11T19:14:40.908Z,3.20
2018-07-11T19:18:23.324Z,3.83
2018-07-11T19:21:00.600Z,3.33
2018-07-11T19:23:41.964Z,3.60
2018-07-11T19:26:21.554Z,3.33
2018-07-11T19:29:04.054Z,3.97
2018-07-11T19:31:41.529Z,3.23
2018-07-11T19:34:20.228Z,3.20
2018-07-11T19:37:00.094Z,3.10
2018-07-11T19:39:34.184Z,3.30
2018-07-11T19:43:13.335Z,3.33
2018-07-11T19:45:54.764Z,2.93
2018-07-11T19:48:37.906Z,3.10
2018-07-11T19:52:17.717Z,4.00
2018-07-11T19:55:17.427Z,3.37
2018-07-11T19:57:45.862Z,3.47
2018-07-11T20:00:14.282Z,2.97
2018-07-11T20:02:43.076Z,3.67
2018-07-11T20:05:11.654Z,3.20
2018-07-11T20:07:40.074Z,3.83
2018-07-11T20:10:08.983Z,3.37
2018-07-11T20:12:38.563Z,3.40
2018-07-11T20:15:07.565Z,3.30
2018-07-11T20:17:36.174Z,3.70
2018-07-11T20:20:06.453Z,3.63
2018-07-11T20:22:34.860Z,3.50
2018-07-11T20:25:03.388Z,3.40
2018-07-11T20:27:32.254Z,3.60
2018-07-11T20:30:00.700Z,3.57
2018-07-11T20:32:29.891Z,3.67
2018-07-11T20:34:58.293Z,3.40
2018-07-11T20:37:27.107Z,3.67
2018-07-11T20:39:56.673Z,3.83
2018-07-11T20:42:25.272Z,3.33
2018-07-11T20:44:55.974Z,3.70
2018-07-11T20:47:24.914Z,3.40
2018-07-11T20:49:53.331Z,3.20
2018-07-11T20:52:26.552Z,3.40
2018-07-11T20:54:55.348Z,3.47
2018-07-11T20:57:24.342Z,3.10
2018-07-11T21:00:04.477Z,3.87
2018-07-11T21:02:44.268Z,3.97
2018-07-11T21:05:24.081Z,3.40
2018-07-11T21:08:22.790Z,3.47
2018-07-11T21:11:03.567Z,3.60
2018-07-11T21:13:44.860Z,3.27
2018-07-11T21:22:08.545Z,3.08
2018-07-11T21:24:39.794Z,3.03
2018-07-11T21:27:22.759Z,3.67
2018-07-11T21:29:51.264Z,3.07
2018-07-11T21:32:19.796Z,3.57
2018-07-11T21:34:48.339Z,3.83
2018-07-11T21:37:25.831Z,3.50
2018-07-11T21:39:58.325Z,3.23
2018-07-11T21:42:32.480Z,4.03
2018-07-11T21:45:01.454Z,3.73
2018-07-11T21:47:30.427Z,3.93
2018-07-11T21:49:59.134Z,4.10
2018-07-11T21:52:28.419Z,3.40
2018-07-11T21:54:56.981Z,3.47
2018-07-11T21:57:25.820Z,3.60
2018-07-11T21:59:54.324Z,4.20
2018-07-11T22:02:22.858Z,3.93
2018-07-11T22:04:51.827Z,3.90
2018-07-11T22:07:20.312Z,4.00
2018-07-11T22:09:48.975Z,3.97
2018-07-11T22:12:18.271Z,4.83
2018-07-11T22:14:46.917Z,4.10
2018-07-11T22:17:27.972Z,4.87
2018-07-11T22:19:55.310Z,4.30
2018-07-11T22:22:22.599Z,4.23
2018-07-11T22:24:51.600Z,4.33
2018-07-11T22:27:19.388Z,3.93
2018-07-11T22:29:47.266Z,4.10
2018-07-11T22:32:21.055Z,4.13
2018-07-11T22:34:49.211Z,4.90
2018-07-11T22:37:16.732Z,4.03
2018-07-11T22:39:47.812Z,4.27
2018-07-11T22:42:19.034Z,4.27
2018-07-11T22:44:46.332Z,4.10
2018-07-11T22:47:13.648Z,4.17
2018-07-11T22:49:45.843Z,4.33
2018-07-11T22:52:14.554Z,4.60
2018-07-11T22:54:42.090Z,4.70
2018-07-11T22:57:09.726Z,4.20
2018-07-11T22:59:37.688Z,3.87
2018-07-11T23:02:05.284Z,4.27
2018-07-11T23:04:32.871Z,4.43
2018-07-11T23:07:00.454Z,4.10
2018-07-11T23:09:28.648Z,4.10
2018-07-11T23:11:55.997Z,4.20
2018-07-11T23:14:23.285Z,4.57
2018-07-11T23:16:52.862Z,4.60
2018-07-11T23:19:20.193Z,4.07
2018-07-11T23:21:48.103Z,4.20
2018-07-11T23:24:15.582Z,3.67
2018-07-11T23:26:43.156Z,4.57
2018-07-11T23:29:10.825Z,4.00
2018-07-11T23:31:38.601Z,4.13
2018-07-11T23:34:06.318Z,4.20
2018-07-11T23:36:34.736Z,4.17
2018-07-11T23:39:02.052Z,4.10
2018-07-11T23:41:29.354Z,3.77
2018-07-11T23:43:56.664Z,4.27
2018-07-11T23:46:23.966Z,3.53
2018-07-11T23:48:51.342Z,3.80
2018-07-11T23:51:18.638Z,3.93
2018-07-11T23:53:45.921Z,4.23
2018-07-11T23:56:13.320Z,4.70
2018-07-11T23:58:40.901Z,4.20
